sensor_id;sensor_type;location;lat;lon;timestamp;P1;durP1;ratioP1;P2;durP2;ratioP2
17965;SDS011;9108;53.204;10.424;2024-02-16T00:00:00;12.73;;;5.33;;
17965;SDS011;9108;53.204;10.424;2024-02-16T05:02:06;6.65;;;2.80;;
17965;SDS011;9108;53.204;10.424;2024-02-16T05:04:33;7.25;;;3.20;;
17965;SDS011;9108;53.204;10.424;2024-02-16T05:07:00;10.10;;;3.10;;
17965;SDS011;9108;53.204;10.424;2024-02-16T05:09:27;5.95;;;2.90;;
17965;SDS011;9108;53.204;10.424;2024-02-16T05:11:54;7.32;;;2.85;;
17965;SDS011;9108;53.204;10.424;2024-02-16T05:14:21;6.37;;;2.77;;
17965;SDS011;9108;53.204;10.424;2024-02-16T05:16:49;6.38;;;3.08;;
17965;SDS011;9108;53.204;10.424;2024-02-16T05:19:17;7.07;;;2.97;;
17965;SDS011;9108;53.204;10.424;2024-02-16T05:21:45;9.17;;;3.10;;
17965;SDS011;9108;53.204;10.424;2024-02-16T05:24:12;10.88;;;4.03;;
17965;SDS011;9108;53.204;10.424;2024-02-16T05:26:39;14.38;;;4.70;;
17965;SDS011;9108;53.204;10.424;2024-02-16T05:29:06;11.93;;;4.10;;
17965;SDS011;9108;53.204;10.424;2024-02-16T05:31:33;11.30;;;4.05;;
17965;SDS011;9108;53.204;10.424;2024-02-16T05:34:01;9.80;;;3.43;;
17965;SDS011;9108;53.204;10.424;2024-02-16T05:36:29;7.07;;;3.00;;
17965;SDS011;9108;53.204;10.424;2024-02-16T05:39:00;10.55;;;3.28;;
17965;SDS011;9108;53.204;10.424;2024-02-16T05:41:44;10.27;;;3.53;;
17965;SDS011;9108;53.204;10.424;2024-02-16T05:44:11;7.93;;;3.70;;
17965;SDS011;9108;53.204;10.424;2024-02-16T05:46:39;8.77;;;3.70;;
17965;SDS011;9108;53.204;10.424;2024-02-16T05:49:06;8.70;;;3.17;;
17965;SDS011;9108;53.204;10.424;2024-02-16T05:51:37;12.85;;;3.22;;
17965;SDS011;9108;53.204;10.424;2024-02-16T05:54:06;7.25;;;3.05;;
17965;SDS011;9108;53.204;10.424;2024-02-16T05:56:33;6.90;;;2.70;;
17965;SDS011;9108;53.204;10.424;2024-02-16T05:59:02;5.38;;;2.70;;
17965;SDS011;9108;53.204;10.424;2024-02-16T06:01:29;7.07;;;2.72;;
17965;SDS011;9108;53.204;10.424;2024-02-16T06:03:56;8.23;;;2.63;;
17965;SDS011;9108;53.204;10.424;2024-02-16T06:06:23;5.78;;;2.63;;
17965;SDS011;9108;53.204;10.424;2024-02-16T06:08:52;6.90;;;2.40;;
17965;SDS011;9108;53.204;10.424;2024-02-16T06:11:19;8.40;;;2.78;;
17965;SDS011;9108;53.204;10.424;2024-02-16T06:13:46;8.32;;;2.42;;
17965;SDS011;9108;53.204;10.424;2024-02-16T06:16:13;6.90;;;2.35;;
17965;SDS011;9108;53.204;10.424;2024-02-16T06:18:41;6.15;;;2.53;;
17965;SDS011;9108;53.204;10.424;2024-02-16T06:21:08;6.25;;;2.38;;
17965;SDS011;9108;53.204;10.424;2024-02-16T06:23:35;6.30;;;2.50;;
17965;SDS011;9108;53.204;10.424;2024-02-16T06:26:05;8.35;;;2.40;;
17965;SDS011;9108;53.204;10.424;2024-02-16T06:28:32;6.82;;;2.40;;
17965;SDS011;9108;53.204;10.424;2024-02-16T06:30:59;6.60;;;2.70;;
17965;SDS011;9108;53.204;10.424;2024-02-16T06:33:26;8.57;;;2.83;;
17965;SDS011;9108;53.204;10.424;2024-02-16T06:35:53;6.85;;;2.38;;
17965;SDS011;9108;53.204;10.424;2024-02-16T06:38:20;8.20;;;2.70;;
17965;SDS011;9108;53.204;10.424;2024-02-16T06:40:47;5.93;;;2.50;;
17965;SDS011;9108;53.204;10.424;2024-02-16T06:43:16;10.68;;;3.30;;
17965;SDS011;9108;53.204;10.424;2024-02-16T06:45:43;10.10;;;3.90;;
17965;SDS011;9108;53.204;10.424;2024-02-16T06:48:10;7.35;;;3.28;;
17965;SDS011;9108;53.204;10.424;2024-02-16T06:50:37;9.15;;;4.05;;
17965;SDS011;9108;53.204;10.424;2024-02-16T06:53:04;8.75;;;3.42;;
17965;SDS011;9108;53.204;10.424;2024-02-16T06:55:31;6.20;;;2.95;;
17965;SDS011;9108;53.204;10.424;2024-02-16T06:57:59;9.23;;;3.20;;
17965;SDS011;9108;53.204;10.424;2024-02-16T07:00:27;6.20;;;2.85;;
17965;SDS011;9108;53.204;10.424;2024-02-16T07:02:54;5.17;;;2.40;;
17965;SDS011;9108;53.204;10.424;2024-02-16T07:05:22;6.38;;;2.45;;
17965;SDS011;9108;53.204;10.424;2024-02-16T07:07:49;6.72;;;2.60;;
17965;SDS011;9108;53.204;10.424;2024-02-16T07:10:16;8.90;;;2.58;;
17965;SDS011;9108;53.204;10.424;2024-02-16T07:12:43;6.78;;;2.00;;
17965;SDS011;9108;53.204;10.424;2024-02-16T07:15:10;7.53;;;2.20;;
17965;SDS011;9108;53.204;10.424;2024-02-16T07:17:40;6.13;;;2.38;;
17965;SDS011;9108;53.204;10.424;2024-02-16T07:20:07;5.15;;;1.80;;
17965;SDS011;9108;53.204;10.424;2024-02-16T07:22:34;8.00;;;2.42;;
17965;SDS011;9108;53.204;10.424;2024-02-16T07:25:01;6.65;;;2.30;;
17965;SDS011;9108;53.204;10.424;2024-02-16T07:27:30;8.73;;;2.17;;
17965;SDS011;9108;53.204;10.424;2024-02-16T07:29:57;5.78;;;2.15;;
17965;SDS011;9108;53.204;10.424;2024-02-16T07:32:24;9.88;;;2.20;;
17965;SDS011;9108;53.204;10.424;2024-02-16T07:34:52;6.00;;;2.10;;
17965;SDS011;9108;53.204;10.424;2024-02-16T07:37:19;5.72;;;2.00;;
17965;SDS011;9108;53.204;10.424;2024-02-16T07:39:47;5.17;;;2.07;;
17965;SDS011;9108;53.204;10.424;2024-02-16T07:42:14;6.60;;;2.13;;
17965;SDS011;9108;53.204;10.424;2024-02-16T07:44:41;4.63;;;1.80;;
17965;SDS011;9108;53.204;10.424;2024-02-16T07:47:08;8.18;;;1.95;;
17965;SDS011;9108;53.204;10.424;2024-02-16T07:49:37;6.32;;;2.00;;
17965;SDS011;9108;53.204;10.424;2024-02-16T07:52:06;8.32;;;2.25;;
17965;SDS011;9108;53.204;10.424;2024-02-16T07:54:34;6.78;;;2.30;;
17965;SDS011;9108;53.204;10.424;2024-02-16T07:57:01;4.38;;;1.88;;
17965;SDS011;9108;53.204;10.424;2024-02-16T07:59:29;5.67;;;1.90;;
17965;SDS011;9108;53.204;10.424;2024-02-16T08:01:56;7.03;;;2.20;;
17965;SDS011;9108;53.204;10.424;2024-02-16T08:04:23;5.38;;;1.80;;
17965;SDS011;9108;53.204;10.424;2024-02-16T08:06:50;4.50;;;2.17;;
17965;SDS011;9108;53.204;10.424;2024-02-16T08:09:19;5.00;;;1.90;;
17965;SDS011;9108;53.204;10.424;2024-02-16T08:11:46;5.97;;;1.88;;
17965;SDS011;9108;53.204;10.424;2024-02-16T08:14:13;5.60;;;1.95;;
17965;SDS011;9108;53.204;10.424;2024-02-16T08:16:40;5.20;;;2.00;;
17965;SDS011;9108;53.204;10.424;2024-02-16T08:19:07;5.47;;;1.88;;
17965;SDS011;9108;53.204;10.424;2024-02-16T08:21:34;3.80;;;1.73;;
17965;SDS011;9108;53.204;10.424;2024-02-16T08:27:06;6.85;;;1.80;;
17965;SDS011;9108;53.204;10.424;2024-02-16T08:29:34;4.30;;;2.00;;
17965;SDS011;9108;53.204;10.424;2024-02-16T08:32:01;5.38;;;1.73;;
17965;SDS011;9108;53.204;10.424;2024-02-16T08:34:29;5.57;;;1.63;;
17965;SDS011;9108;53.204;10.424;2024-02-16T08:36:56;6.90;;;1.70;;
17965;SDS011;9108;53.204;10.424;2024-02-16T08:39:23;4.97;;;1.60;;
17965;SDS011;9108;53.204;10.424;2024-02-16T08:41:51;6.20;;;1.50;;
17965;SDS011;9108;53.204;10.424;2024-02-16T08:44:19;5.40;;;1.50;;
17965;SDS011;9108;53.204;10.424;2024-02-16T08:46:46;3.80;;;1.63;;
17965;SDS011;9108;53.204;10.424;2024-02-16T08:49:14;5.43;;;1.70;;
17965;SDS011;9108;53.204;10.424;2024-02-16T08:51:41;5.50;;;1.60;;
17965;SDS011;9108;53.204;10.424;2024-02-16T08:54:09;5.45;;;1.60;;
17965;SDS011;9108;53.204;10.424;2024-02-16T08:56:36;5.65;;;2.03;;
17965;SDS011;9108;53.204;10.424;2024-02-16T08:59:04;5.32;;;1.70;;
17965;SDS011;9108;53.204;10.424;2024-02-16T09:01:33;5.28;;;1.80;;
17965;SDS011;9108;53.204;10.424;2024-02-16T09:04:00;3.90;;;1.63;;
17965;SDS011;9108;53.204;10.424;2024-02-16T09:06:27;4.10;;;1.70;;
17965;SDS011;9108;53.204;10.424;2024-02-16T09:08:55;4.90;;;1.60;;
17965;SDS011;9108;53.204;10.424;2024-02-16T09:11:22;4.72;;;1.55;;
17965;SDS011;9108;53.204;10.424;2024-02-16T09:13:49;3.95;;;1.50;;
17965;SDS011;9108;53.204;10.424;2024-02-16T09:16:17;4.40;;;1.80;;
17965;SDS011;9108;53.204;10.424;2024-02-16T09:18:45;5.57;;;1.80;;
17965;SDS011;9108;53.204;10.424;2024-02-16T09:21:13;3.60;;;1.60;;
17965;SDS011;9108;53.204;10.424;2024-02-16T09:23:40;5.78;;;1.60;;
17965;SDS011;9108;53.204;10.424;2024-02-16T09:26:07;4.07;;;1.60;;
17965;SDS011;9108;53.204;10.424;2024-02-16T09:28:38;4.90;;;1.70;;
17965;SDS011;9108;53.204;10.424;2024-02-16T09:31:06;5.70;;;1.70;;
17965;SDS011;9108;53.204;10.424;2024-02-16T09:33:33;4.70;;;1.60;;
17965;SDS011;9108;53.204;10.424;2024-02-16T09:36:02;3.93;;;1.70;;
17965;SDS011;9108;53.204;10.424;2024-02-16T09:38:30;4.47;;;1.55;;
17965;SDS011;9108;53.204;10.424;2024-02-16T09:40:57;5.85;;;1.63;;
17965;SDS011;9108;53.204;10.424;2024-02-16T09:43:24;4.38;;;1.83;;
17965;SDS011;9108;53.204;10.424;2024-02-16T09:45:53;3.97;;;1.80;;
17965;SDS011;9108;53.204;10.424;2024-02-16T09:48:20;6.53;;;1.70;;
17965;SDS011;9108;53.204;10.424;2024-02-16T09:50:48;5.05;;;1.90;;
17965;SDS011;9108;53.204;10.424;2024-02-16T09:53:16;4.80;;;1.70;;
17965;SDS011;9108;53.204;10.424;2024-02-16T09:55:44;5.07;;;1.90;;
17965;SDS011;9108;53.204;10.424;2024-02-16T09:58:11;4.85;;;1.77;;
17965;SDS011;9108;53.204;10.424;2024-02-16T10:00:42;7.05;;;1.80;;
17965;SDS011;9108;53.204;10.424;2024-02-16T10:03:20;6.75;;;1.80;;
17965;SDS011;9108;53.204;10.424;2024-02-16T10:05:47;4.70;;;1.70;;
17965;SDS011;9108;53.204;10.424;2024-02-16T10:08:16;5.75;;;2.00;;
17965;SDS011;9108;53.204;10.424;2024-02-16T10:10:43;4.93;;;1.73;;
17965;SDS011;9108;53.204;10.424;2024-02-16T10:13:11;3.45;;;1.60;;
17965;SDS011;9108;53.204;10.424;2024-02-16T10:15:38;3.95;;;1.60;;
17965;SDS011;9108;53.204;10.424;2024-02-16T10:18:05;4.88;;;1.75;;
17965;SDS011;9108;53.204;10.424;2024-02-16T10:20:33;3.95;;;1.50;;
17965;SDS011;9108;53.204;10.424;2024-02-16T10:23:04;3.33;;;1.30;;
17965;SDS011;9108;53.204;10.424;2024-02-16T10:25:32;3.35;;;1.40;;
17965;SDS011;9108;53.204;10.424;2024-02-16T10:28:01;4.72;;;1.50;;
17965;SDS011;9108;53.204;10.424;2024-02-16T10:30:30;4.38;;;1.27;;
17965;SDS011;9108;53.204;10.424;2024-02-16T10:33:01;3.97;;;1.60;;
17965;SDS011;9108;53.204;10.424;2024-02-16T10:35:28;3.63;;;1.40;;
17965;SDS011;9108;53.204;10.424;2024-02-16T10:37:56;5.80;;;1.50;;
17965;SDS011;9108;53.204;10.424;2024-02-16T10:40:24;5.30;;;1.40;;
17965;SDS011;9108;53.204;10.424;2024-02-16T10:42:54;5.70;;;1.50;;
17965;SDS011;9108;53.204;10.424;2024-02-16T10:45:21;2.97;;;1.27;;
17965;SDS011;9108;53.204;10.424;2024-02-16T10:47:48;3.28;;;1.38;;
17965;SDS011;9108;53.204;10.424;2024-02-16T10:50:15;4.73;;;1.40;;
17965;SDS011;9108;53.204;10.424;2024-02-16T10:52:43;5.18;;;1.40;;
17965;SDS011;9108;53.204;10.424;2024-02-16T10:55:12;4.78;;;1.20;;
17965;SDS011;9108;53.204;10.424;2024-02-16T10:57:40;4.97;;;1.55;;
17965;SDS011;9108;53.204;10.424;2024-02-16T11:00:10;4.53;;;1.40;;
17965;SDS011;9108;53.204;10.424;2024-02-16T11:02:52;4.93;;;1.50;;
17965;SDS011;9108;53.204;10.424;2024-02-16T11:05:31;5.03;;;1.33;;
17965;SDS011;9108;53.204;10.424;2024-02-16T11:08:01;3.83;;;1.60;;
17965;SDS011;9108;53.204;10.424;2024-02-16T11:10:28;2.50;;;1.23;;
17965;SDS011;9108;53.204;10.424;2024-02-16T11:12:59;3.70;;;1.40;;
17965;SDS011;9108;53.204;10.424;2024-02-16T11:15:28;5.38;;;1.50;;
17965;SDS011;9108;53.204;10.424;2024-02-16T11:17:57;5.82;;;1.75;;
17965;SDS011;9108;53.204;10.424;2024-02-16T11:20:24;5.90;;;1.60;;
17965;SDS011;9108;53.204;10.424;2024-02-16T11:22:52;4.25;;;1.40;;
17965;SDS011;9108;53.204;10.424;2024-02-16T11:25:19;5.18;;;1.50;;
17965;SDS011;9108;53.204;10.424;2024-02-16T11:27:46;5.32;;;1.50;;
17965;SDS011;9108;53.204;10.424;2024-02-16T11:30:14;4.95;;;1.70;;
17965;SDS011;9108;53.204;10.424;2024-02-16T11:32:43;6.60;;;1.70;;
17965;SDS011;9108;53.204;10.424;2024-02-16T11:35:10;6.35;;;1.60;;
17965;SDS011;9108;53.204;10.424;2024-02-16T11:37:37;5.55;;;1.58;;
17965;SDS011;9108;53.204;10.424;2024-02-16T11:40:05;4.60;;;1.60;;
17965;SDS011;9108;53.204;10.424;2024-02-16T11:42:33;5.90;;;1.63;;
17965;SDS011;9108;53.204;10.424;2024-02-16T11:45:00;4.95;;;1.70;;
17965;SDS011;9108;53.204;10.424;2024-02-16T11:47:28;6.35;;;1.70;;
17965;SDS011;9108;53.204;10.424;2024-02-16T11:50:03;4.85;;;1.60;;
17965;SDS011;9108;53.204;10.424;2024-02-16T11:52:30;4.93;;;1.60;;
17965;SDS011;9108;53.204;10.424;2024-02-16T11:54:57;7.30;;;1.70;;
17965;SDS011;9108;53.204;10.424;2024-02-16T11:57:25;5.03;;;1.77;;
17965;SDS011;9108;53.204;10.424;2024-02-16T11:59:53;4.15;;;1.60;;
17965;SDS011;9108;53.204;10.424;2024-02-16T12:02:20;4.60;;;1.60;;
17965;SDS011;9108;53.204;10.424;2024-02-16T12:04:47;7.20;;;1.70;;
17965;SDS011;9108;53.204;10.424;2024-02-16T12:07:17;4.55;;;1.67;;
17965;SDS011;9108;53.204;10.424;2024-02-16T12:09:54;4.93;;;1.65;;
17965;SDS011;9108;53.204;10.424;2024-02-16T12:12:21;5.05;;;1.60;;
17965;SDS011;9108;53.204;10.424;2024-02-16T12:14:48;5.97;;;1.58;;
17965;SDS011;9108;53.204;10.424;2024-02-16T12:17:15;5.60;;;1.63;;
17965;SDS011;9108;53.204;10.424;2024-02-16T12:19:43;5.05;;;1.55;;
17965;SDS011;9108;53.204;10.424;2024-02-16T12:22:10;6.05;;;1.95;;
17965;SDS011;9108;53.204;10.424;2024-02-16T12:24:39;4.85;;;1.60;;
17965;SDS011;9108;53.204;10.424;2024-02-16T12:27:06;4.80;;;1.80;;
17965;SDS011;9108;53.204;10.424;2024-02-16T12:29:33;4.90;;;1.80;;
17965;SDS011;9108;53.204;10.424;2024-02-16T12:32:00;5.00;;;2.00;;
17965;SDS011;9108;53.204;10.424;2024-02-16T12:34:27;6.35;;;2.05;;
17965;SDS011;9108;53.204;10.424;2024-02-16T12:36:54;5.45;;;1.92;;
17965;SDS011;9108;53.204;10.424;2024-02-16T12:39:21;6.93;;;2.10;;
17965;SDS011;9108;53.204;10.424;2024-02-16T12:41:50;6.60;;;2.07;;
17965;SDS011;9108;53.204;10.424;2024-02-16T12:44:17;5.80;;;2.10;;
17965;SDS011;9108;53.204;10.424;2024-02-16T12:46:44;6.10;;;2.10;;
17965;SDS011;9108;53.204;10.424;2024-02-16T12:49:11;5.50;;;2.03;;
17965;SDS011;9108;53.204;10.424;2024-02-16T12:51:38;6.40;;;2.30;;
17965;SDS011;9108;53.204;10.424;2024-02-16T12:54:05;6.80;;;2.00;;
17965;SDS011;9108;53.204;10.424;2024-02-16T12:56:33;8.65;;;2.50;;
17965;SDS011;9108;53.204;10.424;2024-02-16T12:59:01;6.43;;;2.17;;
17965;SDS011;9108;53.204;10.424;2024-02-16T13:01:29;6.93;;;2.05;;
17965;SDS011;9108;53.204;10.424;2024-02-16T13:03:56;7.10;;;2.00;;
17965;SDS011;9108;53.204;10.424;2024-02-16T13:06:23;6.93;;;2.10;;
17965;SDS011;9108;53.204;10.424;2024-02-16T13:08:50;7.30;;;2.53;;
17965;SDS011;9108;53.204;10.424;2024-02-16T13:11:18;6.95;;;2.10;;
17965;SDS011;9108;53.204;10.424;2024-02-16T13:13:45;6.00;;;2.33;;
17965;SDS011;9108;53.204;10.424;2024-02-16T13:16:14;7.13;;;2.00;;
17965;SDS011;9108;53.204;10.424;2024-02-16T13:18:41;6.20;;;2.28;;
17965;SDS011;9108;53.204;10.424;2024-02-16T13:21:08;6.43;;;2.30;;
17965;SDS011;9108;53.204;10.424;2024-02-16T13:23:35;8.80;;;2.60;;
17965;SDS011;9108;53.204;10.424;2024-02-16T13:26:02;6.47;;;2.20;;
17965;SDS011;9108;53.204;10.424;2024-02-16T13:28:31;7.43;;;2.25;;
17965;SDS011;9108;53.204;10.424;2024-02-16T13:30:58;9.25;;;2.50;;
17965;SDS011;9108;53.204;10.424;2024-02-16T13:33:27;8.43;;;2.65;;
17965;SDS011;9108;53.204;10.424;2024-02-16T13:35:54;7.28;;;2.63;;
17965;SDS011;9108;53.204;10.424;2024-02-16T13:38:21;7.65;;;2.50;;
17965;SDS011;9108;53.204;10.424;2024-02-16T13:40:48;7.20;;;2.70;;
17965;SDS011;9108;53.204;10.424;2024-02-16T13:43:15;7.03;;;2.33;;
17965;SDS011;9108;53.204;10.424;2024-02-16T13:45:49;6.68;;;2.63;;
17965;SDS011;9108;53.204;10.424;2024-02-16T13:48:17;6.50;;;2.47;;
17965;SDS011;9108;53.204;10.424;2024-02-16T13:50:47;8.90;;;2.67;;
17965;SDS011;9108;53.204;10.424;2024-02-16T13:53:14;11.40;;;2.70;;
17965;SDS011;9108;53.204;10.424;2024-02-16T13:55:41;6.55;;;2.53;;
17965;SDS011;9108;53.204;10.424;2024-02-16T13:58:09;7.35;;;3.10;;
17965;SDS011;9108;53.204;10.424;2024-02-16T14:00:36;6.53;;;2.53;;
17965;SDS011;9108;53.204;10.424;2024-02-16T14:03:04;7.55;;;3.10;;
17965;SDS011;9108;53.204;10.424;2024-02-16T14:05:33;7.72;;;2.95;;
17965;SDS011;9108;53.204;10.424;2024-02-16T14:08:02;9.23;;;3.20;;
17965;SDS011;9108;53.204;10.424;2024-02-16T14:10:29;10.10;;;3.38;;
17965;SDS011;9108;53.204;10.424;2024-02-16T14:12:57;7.30;;;3.03;;
17965;SDS011;9108;53.204;10.424;2024-02-16T14:15:24;10.15;;;3.40;;
17965;SDS011;9108;53.204;10.424;2024-02-16T14:17:51;9.02;;;3.47;;
17965;SDS011;9108;53.204;10.424;2024-02-16T14:20:18;8.55;;;2.90;;
17965;SDS011;9108;53.204;10.424;2024-02-16T14:22:46;9.95;;;3.28;;
17965;SDS011;9108;53.204;10.424;2024-02-16T14:25:15;7.77;;;3.07;;
17965;SDS011;9108;53.204;10.424;2024-02-16T14:27:43;11.85;;;3.42;;
17965;SDS011;9108;53.204;10.424;2024-02-16T14:30:11;7.45;;;3.10;;
17965;SDS011;9108;53.204;10.424;2024-02-16T14:32:38;9.18;;;3.45;;
17965;SDS011;9108;53.204;10.424;2024-02-16T14:35:06;8.98;;;3.38;;
17965;SDS011;9108;53.204;10.424;2024-02-16T14:37:34;9.27;;;3.33;;
17965;SDS011;9108;53.204;10.424;2024-02-16T14:40:01;10.82;;;3.70;;
17965;SDS011;9108;53.204;10.424;2024-02-16T14:42:31;8.00;;;3.40;;
17965;SDS011;9108;53.204;10.424;2024-02-16T14:44:58;11.40;;;3.90;;
17965;SDS011;9108;53.204;10.424;2024-02-16T14:47:27;10.87;;;3.47;;
17965;SDS011;9108;53.204;10.424;2024-02-16T14:49:54;11.57;;;3.80;;
17965;SDS011;9108;53.204;10.424;2024-02-16T14:52:22;10.50;;;3.58;;
17965;SDS011;9108;53.204;10.424;2024-02-16T14:54:49;12.37;;;3.63;;
17965;SDS011;9108;53.204;10.424;2024-02-16T14:57:16;9.05;;;3.33;;
17965;SDS011;9108;53.204;10.424;2024-02-16T14:59:46;10.90;;;3.70;;
17965;SDS011;9108;53.204;10.424;2024-02-16T15:02:14;8.90;;;3.50;;
17965;SDS011;9108;53.204;10.424;2024-02-16T15:04:41;10.63;;;3.63;;
17965;SDS011;9108;53.204;10.424;2024-02-16T15:07:08;9.98;;;3.38;;
17965;SDS011;9108;53.204;10.424;2024-02-16T15:09:35;10.27;;;3.42;;
17965;SDS011;9108;53.204;10.424;2024-02-16T15:12:03;11.07;;;3.75;;
17965;SDS011;9108;53.204;10.424;2024-02-16T15:14:31;10.05;;;3.42;;
17965;SDS011;9108;53.204;10.424;2024-02-16T15:17:00;10.63;;;3.28;;
17965;SDS011;9108;53.204;10.424;2024-02-16T15:19:29;10.82;;;4.03;;
17965;SDS011;9108;53.204;10.424;2024-02-16T15:21:57;12.68;;;4.10;;
17965;SDS011;9108;53.204;10.424;2024-02-16T15:24:24;8.70;;;4.00;;
17965;SDS011;9108;53.204;10.424;2024-02-16T15:26:51;18.33;;;6.78;;
17965;SDS011;9108;53.204;10.424;2024-02-16T15:29:18;14.85;;;5.38;;
17965;SDS011;9108;53.204;10.424;2024-02-16T15:31:45;10.90;;;4.40;;
17965;SDS011;9108;53.204;10.424;2024-02-16T15:34:13;10.88;;;4.38;;
17965;SDS011;9108;53.204;10.424;2024-02-16T15:36:41;12.38;;;4.40;;
17965;SDS011;9108;53.204;10.424;2024-02-16T15:39:08;12.18;;;4.40;;
17965;SDS011;9108;53.204;10.424;2024-02-16T15:41:35;13.02;;;5.00;;
17965;SDS011;9108;53.204;10.424;2024-02-16T15:44:03;11.35;;;4.38;;
17965;SDS011;9108;53.204;10.424;2024-02-16T15:46:30;11.98;;;4.40;;
17965;SDS011;9108;53.204;10.424;2024-02-16T15:48:57;11.57;;;4.20;;
17965;SDS011;9108;53.204;10.424;2024-02-16T15:51:26;10.03;;;4.33;;
17965;SDS011;9108;53.204;10.424;2024-02-16T15:53:53;12.27;;;4.70;;
17965;SDS011;9108;53.204;10.424;2024-02-16T15:56:21;9.95;;;4.40;;
17965;SDS011;9108;53.204;10.424;2024-02-16T15:58:49;9.05;;;4.38;;
17965;SDS011;9108;53.204;10.424;2024-02-16T16:01:24;12.30;;;4.87;;
17965;SDS011;9108;53.204;10.424;2024-02-16T16:03:51;10.73;;;4.30;;
17965;SDS011;9108;53.204;10.424;2024-02-16T16:06:18;11.48;;;4.70;;
17965;SDS011;9108;53.204;10.424;2024-02-16T16:08:46;13.02;;;4.80;;
17965;SDS011;9108;53.204;10.424;2024-02-16T16:11:14;11.82;;;4.65;;
17965;SDS011;9108;53.204;10.424;2024-02-16T16:13:41;8.93;;;4.37;;
17965;SDS011;9108;53.204;10.424;2024-02-16T16:16:08;12.73;;;4.90;;
17965;SDS011;9108;53.204;10.424;2024-02-16T16:18:35;11.00;;;4.50;;
17965;SDS011;9108;53.204;10.424;2024-02-16T16:21:03;10.48;;;4.60;;
17965;SDS011;9108;53.204;10.424;2024-02-16T16:23:30;9.88;;;4.60;;
17965;SDS011;9108;53.204;10.424;2024-02-16T16:26:02;10.90;;;4.70;;
17965;SDS011;9108;53.204;10.424;2024-02-16T16:28:29;9.45;;;4.40;;
17965;SDS011;9108;53.204;10.424;2024-02-16T16:30:56;10.57;;;4.60;;
17965;SDS011;9108;53.204;10.424;2024-02-16T16:33:24;11.73;;;4.78;;
17965;SDS011;9108;53.204;10.424;2024-02-16T16:35:51;11.05;;;4.30;;
17965;SDS011;9108;53.204;10.424;2024-02-16T16:38:18;9.65;;;4.70;;
17965;SDS011;9108;53.204;10.424;2024-02-16T16:40:45;10.97;;;4.50;;
17965;SDS011;9108;53.204;10.424;2024-02-16T16:43:14;8.95;;;5.00;;
17965;SDS011;9108;53.204;10.424;2024-02-16T16:45:42;10.10;;;4.80;;
17965;SDS011;9108;53.204;10.424;2024-02-16T16:48:09;11.65;;;5.20;;
17965;SDS011;9108;53.204;10.424;2024-02-16T16:50:36;9.10;;;4.80;;
17965;SDS011;9108;53.204;10.424;2024-02-16T16:53:05;11.02;;;5.35;;
17965;SDS011;9108;53.204;10.424;2024-02-16T16:55:32;9.18;;;5.00;;
17965;SDS011;9108;53.204;10.424;2024-02-16T16:57:59;8.40;;;4.97;;
17965;SDS011;9108;53.204;10.424;2024-02-16T17:00:29;10.63;;;5.28;;
17965;SDS011;9108;53.204;10.424;2024-02-16T17:02:56;11.27;;;5.65;;
17965;SDS011;9108;53.204;10.424;2024-02-16T17:05:24;8.88;;;5.35;;
17965;SDS011;9108;53.204;10.424;2024-02-16T17:07:51;9.63;;;5.30;;
17965;SDS011;9108;53.204;10.424;2024-02-16T17:10:19;9.32;;;5.18;;
17965;SDS011;9108;53.204;10.424;2024-02-16T17:12:46;8.63;;;4.88;;
17965;SDS011;9108;53.204;10.424;2024-02-16T17:15:15;9.20;;;5.10;;
17965;SDS011;9108;53.204;10.424;2024-02-16T17:17:45;9.00;;;5.22;;
17965;SDS011;9108;53.204;10.424;2024-02-16T17:20:16;8.20;;;5.03;;
17965;SDS011;9108;53.204;10.424;2024-02-16T17:22:43;7.35;;;4.70;;
17965;SDS011;9108;53.204;10.424;2024-02-16T17:25:10;10.25;;;5.00;;
17965;SDS011;9108;53.204;10.424;2024-02-16T17:27:37;8.93;;;5.05;;
17965;SDS011;9108;53.204;10.424;2024-02-16T17:30:05;7.77;;;4.40;;
17965;SDS011;9108;53.204;10.424;2024-02-16T17:32:33;8.25;;;4.65;;
17965;SDS011;9108;53.204;10.424;2024-02-16T17:35:01;8.32;;;4.93;;
17965;SDS011;9108;53.204;10.424;2024-02-16T17:37:28;11.48;;;7.53;;
17965;SDS011;9108;53.204;10.424;2024-02-16T17:39:56;12.55;;;6.07;;
17965;SDS011;9108;53.204;10.424;2024-02-16T17:42:23;12.23;;;6.55;;
17965;SDS011;9108;53.204;10.424;2024-02-16T17:44:50;16.98;;;9.52;;
17965;SDS011;9108;53.204;10.424;2024-02-16T17:47:17;8.27;;;4.97;;
17965;SDS011;9108;53.204;10.424;2024-02-16T17:49:44;11.25;;;6.75;;
17965;SDS011;9108;53.204;10.424;2024-02-16T17:52:13;9.82;;;6.50;;
17965;SDS011;9108;53.204;10.424;2024-02-16T17:54:40;26.48;;;15.60;;
17965;SDS011;9108;53.204;10.424;2024-02-16T17:57:07;14.67;;;8.50;;
17965;SDS011;9108;53.204;10.424;2024-02-16T17:59:34;12.05;;;6.72;;
17965;SDS011;9108;53.204;10.424;2024-02-16T18:02:02;9.30;;;6.23;;
17965;SDS011;9108;53.204;10.424;2024-02-16T18:04:31;13.30;;;8.50;;
17965;SDS011;9108;53.204;10.424;2024-02-16T18:06:58;9.52;;;6.55;;
17965;SDS011;9108;53.204;10.424;2024-02-16T18:09:27;10.75;;;6.18;;
17965;SDS011;9108;53.204;10.424;2024-02-16T18:11:54;12.05;;;7.85;;
17965;SDS011;9108;53.204;10.424;2024-02-16T18:14:21;12.63;;;7.88;;
17965;SDS011;9108;53.204;10.424;2024-02-16T18:16:48;10.68;;;7.35;;
17965;SDS011;9108;53.204;10.424;2024-02-16T18:19:17;12.95;;;8.68;;
17965;SDS011;9108;53.204;10.424;2024-02-16T18:21:44;14.57;;;10.55;;
17965;SDS011;9108;53.204;10.424;2024-02-16T18:24:11;16.23;;;11.43;;
17965;SDS011;9108;53.204;10.424;2024-02-16T18:26:40;14.45;;;10.27;;
17965;SDS011;9108;53.204;10.424;2024-02-16T18:29:07;17.15;;;10.13;;
17965;SDS011;9108;53.204;10.424;2024-02-16T18:31:35;14.52;;;10.25;;
17965;SDS011;9108;53.204;10.424;2024-02-16T18:34:02;18.65;;;11.65;;
17965;SDS011;9108;53.204;10.424;2024-02-16T18:36:33;21.30;;;13.20;;
17965;SDS011;9108;53.204;10.424;2024-02-16T18:39:00;17.52;;;10.30;;
17965;SDS011;9108;53.204;10.424;2024-02-16T18:41:28;15.95;;;9.70;;
17965;SDS011;9108;53.204;10.424;2024-02-16T18:43:56;13.80;;;9.10;;
17965;SDS011;9108;53.204;10.424;2024-02-16T18:46:23;13.80;;;8.55;;
17965;SDS011;9108;53.204;10.424;2024-02-16T18:48:51;13.88;;;8.43;;
17965;SDS011;9108;53.204;10.424;2024-02-16T18:51:18;10.48;;;6.43;;
17965;SDS011;9108;53.204;10.424;2024-02-16T18:53:45;10.13;;;6.55;;
17965;SDS011;9108;53.204;10.424;2024-02-16T18:56:12;9.55;;;5.47;;
17965;SDS011;9108;53.204;10.424;2024-02-16T18:58:39;7.28;;;4.75;;
17965;SDS011;9108;53.204;10.424;2024-02-16T19:01:08;8.00;;;4.80;;
17965;SDS011;9108;53.204;10.424;2024-02-16T19:03:35;7.20;;;4.80;;
17965;SDS011;9108;53.204;10.424;2024-02-16T19:06:02;7.82;;;4.93;;
17965;SDS011;9108;53.204;10.424;2024-02-16T19:08:29;8.13;;;4.60;;
17965;SDS011;9108;53.204;10.424;2024-02-16T19:14:00;4.68;;;3.00;;
17965;SDS011;9108;53.204;10.424;2024-02-16T19:16:38;3.53;;;2.15;;
17965;SDS011;9108;53.204;10.424;2024-02-16T19:19:05;5.28;;;2.30;;
17965;SDS011;9108;53.204;10.424;2024-02-16T19:21:35;3.60;;;2.28;;
17965;SDS011;9108;53.204;10.424;2024-02-16T19:24:02;4.15;;;2.30;;
17965;SDS011;9108;53.204;10.424;2024-02-16T19:26:31;3.00;;;2.03;;
17965;SDS011;9108;53.204;10.424;2024-02-16T19:28:59;3.47;;;1.70;;
17965;SDS011;9108;53.204;10.424;2024-02-16T19:31:28;2.10;;;1.55;;
17965;SDS011;9108;53.204;10.424;2024-02-16T19:37:47;2.30;;;1.40;;
17965;SDS011;9108;53.204;10.424;2024-02-16T19:40:43;3.17;;;1.40;;
17965;SDS011;9108;53.204;10.424;2024-02-16T19:43:24;1.90;;;1.27;;
17965;SDS011;9108;53.204;10.424;2024-02-16T19:45:57;2.65;;;1.30;;
17965;SDS011;9108;53.204;10.424;2024-02-16T19:48:27;2.53;;;1.30;;
17965;SDS011;9108;53.204;10.424;2024-02-16T19:51:05;2.75;;;1.35;;
17965;SDS011;9108;53.204;10.424;2024-02-16T19:53:38;2.67;;;1.50;;
17965;SDS011;9108;53.204;10.424;2024-02-16T19:56:14;4.05;;;1.60;;